Terminal Aerodrome Forecast
Issued by NWS Omaha/Valley, NE

Home | Current Version | Previous Version | Text Only | Print | Product List | Glossary On
Versions: 1 2 3 4 5 6 7 8 9 10 11 12 13 14 15 16 17 18 19 20 21 22 23 24 25 26 27 28 29 30 31 32 33 34 35 36 37 38 39 40 41 42
933
FTUS43 KOAX 202022 AAA
TAFLNK
TAF AMD
KLNK 202022Z 2020/2118 01009KT P6SM VCSH OVC009
     FM210600 35005KT P6SM OVC008
     FM211000 31004KT 5SM BR OVC005
     FM211500 VRB03KT P6SM OVC015
     FM211700 25005KT P6SM BKN035=

USA.gov is the U.S. government's official web portal to all federal, state and local government web resources and services.